RMK

Tweets about a recent trend: RMK

プライド高いブスとか書かれると自分のことなんじゃないかと被害妄想繰り返してしまうぶすはこちらです!
SECOND来たら教えて
SKBQ 241100Z 33005KT 6000 VCFG FEW015 24/23 A2985 RMK VCFG/SW
SKLT 241100Z 06005KT 6000 VCSH OVC005 24/23 A2984 RMK AD OPER IMC
SKCC 241100Z VRB02KT 3000 DZ BCFG SCT012 BKN070 23/22 A2991 RMK AD OPR IMC
この前サンプルもらったRMKの下地とファンデーションつけてみた。下地はすごく良い。買うかもしれない。ファンデーションもちゃんと隠したいところは隠れてくれて、いい商品なんだろうけど、なんか色が黄色っぽすぎる。仕上がった肌色が好みじゃない。
RT @HomeDSGN: Rmk! Arquitetura Designs a Home on the Banks of the Arroio Pelotas River https://t.co/zSv7z1IRVq https://t.co/e4iL8ve0v0
宮崎と宮崎、Mポーズしてた!!! けどいい所で次の紹介されたったね😭w でもしっかりしてた! これでコンさんも大喜びだよ♡ #宮崎と宮崎 #Mステ https://t.co/IAkBMYwjpa
Comemorando aniversário de 20 anos, a japonesa RMK renovou as embalagens de sua linha de "base makeup" (os... https://t.co/VdJYoUgdsQ
キールズのバターリップがすごく良い感じ これつけるだけで血色の良い唇が作れる💋 RMKのリップグロスもかわいい 最近口紅系とマニキュア系のプレゼント多いし、溢れてるから次の誕生日は日用雑貨等でお願いしたいところ。
Mステ♡ プレミアムフライデーやで!!
METAR YBUK 241100Z 16003KT 18/07 Q1023 RMK RF0.0/1.0 UV0
KOSH 241053Z AUTO 06016G25KT 10SM OVC013 M01/M03 A2964 RMK AO2 PK WND 05030/1025 UPB00E31SNE00 SLP047 P0000 T10061028
KORD 241051Z 02011KT 9SM OVC003 04/03 A2951 RMK AO2 LTG DSNT W-NE RAB01E17 SLP996 P0000 T00440033
KATL 241052Z 15004KT 10SM FEW250 14/12 A2989 RMK AO2 SLP114 T01440122
YPDN 241030Z 35005KT CAVOK 28/25 Q1009 NOSIG RMK USE TAF FOR ARRIVALS AFTER 1230Z
KJFK 241051Z 00000KT 10SM FEW130 BKN250 08/08 A2995 RMK AO2 SLP141 T00830083
KONT 241053Z 04003KT 10SM CLR 05/00 A3009 RMK AO2 SLP193 T00500000
KSFO 241056Z 00000KT 10SM CLR 07/02 A3023 RMK AO2 SLP236 T00720017
KJFK 241051Z 00000KT 10SM FEW130 BKN250 08/08 A2995 RMK AO2 SLP141 T00830083
KLAX 241053Z 00000KT 10SM CLR 09/M07 A3011 RMK AO2 SLP195 T00891067
@rimo_akg わたしもきょううすいのRMKで買い物しちゃいました🙉🙉笑